Demo 6

Misión y Visión

La misión es proporcionar información fiable a la navegación aérea, contribuyendo a la seguridad, regularidad y eficiencia de la Navegación Aérea Internacional

La visión es contribuir sustancialmente al desarrollo de conocimientos y a la utilización de la meteorología aeronáutica a nivel nacional e internacional, mediante la innovación y la coparticipación con sectores sociales y productivos de la sociedad.

 
  Inicio
  Metar
  Taf
  Wintemp
  SIGMET
  Avisos
  Pronósticos
  Carpeta Meteorologica
  Imágenes Satelitales
  Climatología Aeronáutica
   
  ¿Quienes Somos?
  Contacto
  Eventos



DIRECCIONES PARA INFORMES NACIONALES E INTERNACIONALES
(Metar /Speci - TAF)



http://adds.aviationweather.gov/tafs/index.php

http://www.ogimet.com/metars.phtml



PRONÓSTICOS DE AERÓDROMO

Cuando sea necesario, el encabezamiento abreviado puede incluir un cuarto grupo consistente en tres letras para identificar los boletines demorados (RRA), corregidos(CCA) o enmendados (AAA). Los boletines adicionales demorados, corregidos o enmendados deben identificarse con las letras RRB, RRC, etc.; CCB, CCC,etc.;AAB, AAC,etc.



ESTACIONES DESCRIPCION
MPTO (M)260000Z 03007KT 9999 SCT018 29/22 Q1008 NOSIG=  
MPBO (M) 260000Z NIL  
MPCH (M) 260100Z 00000KT 9999 SCT030 BKN080 27/23 Q1014  
MPSA (M)  
MPCE (M)  
MPPN (M)  
MPSM (M) 260200Z 33006KT(E) CAVOK 27/20 Q1010  
MPJE (M)  
MPPA (M) 260200Z 35008KT 9999 FEW020 27/24 Q1012  
MPMG (M) 260300Z 32008KT CAVOK 27/23 Q1012 NOSIG  
MPDA (M) 260000Z NIL  
MPVR (M)  
MPWN (M)  
MPOA (M)  
MPMF (M)  
MPEJ (M)  


CLIMATICAS

MPTO

25 ABRIL 2019

PCPN (mm)

T° MAX

T° MIN

VIENTO MAX (KT)

HORA

VIENTO PREDOM (KT)

0.0

33.0

20.6

19011KT

1700Z

NE 09KT

CLIMATICAS

MPMG

25-ABRIL-2019

PCPN (mm)

T° MAX T° MIN VIENTO MAX (KT) HORA VIENTO PREDOM (KT)
0.0 33.8

24.1

31006G16KT

1700Z

WNW

 

 
 

Found

The document has moved here.